• Join FlightAware (Why Join?)
  • Login
  • US Flag 
12:43AM EST


 

Airport Tracker/Info


-or-


 

Live Flight TrackerFlight Track Log ✈ SKQ45 ✈ 23-Apr-2013 ✈ KOSU - KBUY

Flight Track Log - Related Links

Times and Time Zones

All times are in EDT time to prevent confusion due to time zone crossing. See the SKQ45 flight status page for this flight to view local times or setup timezone preferences in your user account.

Time Position Orientation Groundspeed Altitude Reporting Facility
EDT Latitude Longitude Course Direction KTS MPH feet Rate Location/Type
01:50AM 40.0750 -83.0464 106° East 129 148 1,700  Level Indianapolis Center
01:51AM 40.0469 -83.0222 147° Southeast 118 136 3,500 1,980 Climbing Indianapolis Center
01:52AM 40.0125 -83.0036 158° South 126 145 5,600 2,040 Climbing Indianapolis Center
01:53AM 39.9750 -82.9806 155° Southeast 143 165 7,600 1,860 Climbing Indianapolis Center
01:54AM 39.9378 -82.9442 143° Southeast 159 183 9,400 1,800 Climbing Indianapolis Center
01:55AM 39.8986 -82.9086 145° Southeast 168 193 11,300 1,620 Climbing Indianapolis Center
01:56AM 39.8669 -82.8767 142° Southeast 169 194 12,700 1,500 Climbing Indianapolis Center
01:57AM 39.8272 -82.8389 144° Southeast 174 200 14,300 1,680 Climbing Indianapolis Center
01:58AM 39.7861 -82.7997 144° Southeast 180 207 16,100 1,620 Climbing Indianapolis Center
01:59AM 39.7433 -82.7589 144° Southeast 187 215 17,600 1,260 Climbing Indianapolis Center
02:00AM 39.6989 -82.7169 144° Southeast 195 224 18,700 660 Climbing Indianapolis Center
02:01AM 39.6481 -82.6697 144° Southeast 219 252 19,000 120 Climbing Indianapolis Center
02:02AM 39.5872 -82.6128 144° Southeast 262 302 19,000  Level Indianapolis Center
02:03AM 39.5250 -82.5536 144° Southeast 274 315 19,000  Level Indianapolis Center
02:04AM 39.4614 -82.4944 144° Southeast 278 320 19,000  Level Indianapolis Center
02:05AM 39.3972 -82.4344 144° Southeast 280 322 19,000  Level Indianapolis Center
02:06AM 39.3344 -82.3744 144° Southeast 281 323 19,000  Level Indianapolis Center
02:07AM 39.2700 -82.3161 145° Southeast 282 325 19,000  Level Indianapolis Center
02:08AM 39.2069 -82.2567 144° Southeast 281 323 19,000  Level Indianapolis Center
02:09AM 39.1447 -82.1967 143° Southeast 278 320 19,000  Level Indianapolis Center
02:10AM 39.0811 -82.1381 144° Southeast 280 322 19,000  Level Indianapolis Center
02:11AM 39.0178 -82.0803 145° Southeast 279 321 19,000  Level Indianapolis Center
02:12AM 38.9539 -82.0222 145° Southeast 280 322 19,000  Level Indianapolis Center
02:13AM 38.8908 -81.9633 144° Southeast 280 322 19,000  Level Indianapolis Center
02:14AM 38.8272 -81.9042 144° Southeast 284 327 19,000  Level Indianapolis Center
02:15AM 38.7642 -81.8481 145° Southeast 278 320 19,000  Level Indianapolis Center
02:16AM 38.7008 -81.7897 144° Southeast 280 322 19,000  Level Indianapolis Center
02:17AM 38.6383 -81.7328 145° Southeast 280 322 19,000  Level Indianapolis Center
02:18AM 38.5750 -81.6761 145° Southeast 281 323 19,000  Level Indianapolis Center
02:19AM 38.5128 -81.6189 144° Southeast 280 322 19,000  Level Indianapolis Center
02:20AM 38.4492 -81.5619 145° Southeast 280 322 19,000  Level Indianapolis Center
02:21AM 38.3864 -81.5050 145° Southeast 280 322 19,000  Level Indianapolis Center
02:22AM 38.3228 -81.4475 145° Southeast 279 321 19,000  Level Indianapolis Center
02:23AM 38.2592 -81.3911 145° Southeast 279 321 19,000  Level Indianapolis Center
02:24AM 38.1958 -81.3342 145° Southeast 279 321 19,000  Level Indianapolis Center
02:25AM 38.1314 -81.2758 145° Southeast 283 326 19,000  Level Indianapolis Center
02:26AM 38.0672 -81.2192 145° Southeast 282 325 19,000  Level Indianapolis Center
02:27AM 38.0031 -81.1619 145° Southeast 282 325 19,000  Level Indianapolis Center
02:28AM 37.9392 -81.1042 144° Southeast 282 325 19,000  Level Indianapolis Center
02:29AM 37.8750 -81.0483 146° Southeast 281 323 19,000  Level Indianapolis Center
02:30AM 37.8236 -81.0078 148° Southeast 287 330 19,000  Level Washington Center
02:31AM 37.7592 -80.9533 146° Southeast 287 330 19,000  Level Washington Center
02:32AM 37.7031 -80.9019 144° Southeast 287 330 19,000  Level Washington Center
02:33AM 37.6389 -80.8450 145° Southeast 282 325 19,000  Level Washington Center
02:34AM 37.5747 -80.7881 145° Southeast 282 325 19,000  Level Washington Center
02:35AM 37.5103 -80.7314 145° Southeast 282 325 19,000  Level Washington Center
02:36AM 37.4378 -80.6689 146° Southeast 282 325 19,000  Level Washington Center
02:37AM 37.3756 -80.6125 144° Southeast 282 325 19,000  Level Washington Center
02:38AM 37.3111 -80.5561 145° Southeast 282 325 19,000  Level Washington Center
02:39AM 37.2447 -80.4994 146° Southeast 282 325 19,000 -300 Level Washington Center
02:40AM 37.1864 -80.4461 144° Southeast 282 325 18,400 -540 Descending Washington Center
02:41AM 37.1178 -80.3897 147° Southeast 288 331 18,000 -600 Descending Washington Center
02:42AM 37.0492 -80.3308 146° Southeast 294 338 17,300 -840 Descending Washington Center
02:43AM 36.9744 -80.2664 145° Southeast 294 338 16,400 -900 Descending Washington Center
02:44AM 36.9100 -80.2081 144° Southeast 294 338 15,600 -840 Descending Washington Center
02:46AM 36.8053 -80.1169 145° Southeast  Level FlightAware Approximate
02:53AM 36.4059 -79.7790 147° Southeast  Level FlightAware Approximate
02:54AM 36.3483 -79.7319 145° Southeast  Level FlightAware Approximate
02:55AM 36.2916 -79.6832 145° Southeast  Level FlightAware Approximate
02:56AM 36.2348 -79.6346 145° Southeast  Level FlightAware Approximate
02:57AM 36.1775 -79.5873 149° Southeast  Level FlightAware Approximate
02:58AM 36.1214 -79.5380 141° Southeast  Level FlightAware Approximate
02:59AM 36.0657 -79.4882 152° Southeast  Level FlightAware Approximate
03:00AM 36.0485 -79.4749 152° Southeast  Level Estimated